sensor_id;sensor_type;location;lat;lon;timestamp;P1;durP1;ratioP1;P2;durP2;ratioP2
5167;SDS011;2603;48.918;8.980;2022-10-16T00:02:23;2.97;;;1.70;;
5167;SDS011;2603;48.918;8.980;2022-10-16T00:04:49;6.90;;;2.00;;
5167;SDS011;2603;48.918;8.980;2022-10-16T00:07:16;4.23;;;2.40;;
5167;SDS011;2603;48.918;8.980;2022-10-16T00:09:43;2.90;;;1.90;;
5167;SDS011;2603;48.918;8.980;2022-10-16T00:12:09;3.20;;;2.13;;
5167;SDS011;2603;48.918;8.980;2022-10-16T00:14:36;7.17;;;2.40;;
5167;SDS011;2603;48.918;8.980;2022-10-16T00:17:07;4.57;;;2.17;;
5167;SDS011;2603;48.918;8.980;2022-10-16T00:19:34;7.17;;;2.17;;
5167;SDS011;2603;48.918;8.980;2022-10-16T00:22:00;5.87;;;2.13;;
5167;SDS011;2603;48.918;8.980;2022-10-16T00:24:28;4.07;;;1.80;;
5167;SDS011;2603;48.918;8.980;2022-10-16T00:26:54;2.80;;;1.87;;
5167;SDS011;2603;48.918;8.980;2022-10-16T00:29:21;3.40;;;1.80;;
5167;SDS011;2603;48.918;8.980;2022-10-16T00:31:48;3.37;;;2.20;;
5167;SDS011;2603;48.918;8.980;2022-10-16T00:34:16;8.50;;;1.97;;
5167;SDS011;2603;48.918;8.980;2022-10-16T00:36:42;5.80;;;1.57;;
5167;SDS011;2603;48.918;8.980;2022-10-16T00:39:09;2.57;;;1.37;;
5167;SDS011;2603;48.918;8.980;2022-10-16T00:41:35;2.30;;;1.03;;
5167;SDS011;2603;48.918;8.980;2022-10-16T00:44:02;5.43;;;2.60;;
5167;SDS011;2603;48.918;8.980;2022-10-16T00:46:32;3.80;;;1.80;;
5167;SDS011;2603;48.918;8.980;2022-10-16T00:49:03;3.90;;;1.53;;
5167;SDS011;2603;48.918;8.980;2022-10-16T00:51:33;2.50;;;1.07;;
5167;SDS011;2603;48.918;8.980;2022-10-16T00:54:01;7.00;;;1.40;;
5167;SDS011;2603;48.918;8.980;2022-10-16T00:56:29;7.83;;;1.00;;
5167;SDS011;2603;48.918;8.980;2022-10-16T00:58:55;2.77;;;1.13;;
5167;SDS011;2603;48.918;8.980;2022-10-16T01:01:22;7.10;;;1.50;;
5167;SDS011;2603;48.918;8.980;2022-10-16T01:03:48;5.63;;;1.43;;
5167;SDS011;2603;48.918;8.980;2022-10-16T01:06:20;5.40;;;1.60;;
5167;SDS011;2603;48.918;8.980;2022-10-16T01:08:55;2.70;;;1.40;;
5167;SDS011;2603;48.918;8.980;2022-10-16T01:11:27;4.23;;;1.10;;
5167;SDS011;2603;48.918;8.980;2022-10-16T01:13:58;3.00;;;0.90;;
5167;SDS011;2603;48.918;8.980;2022-10-16T01:16:29;6.30;;;1.37;;
5167;SDS011;2603;48.918;8.980;2022-10-16T01:19:00;4.93;;;1.37;;
5167;SDS011;2603;48.918;8.980;2022-10-16T01:21:31;2.53;;;1.20;;
5167;SDS011;2603;48.918;8.980;2022-10-16T01:24:03;2.27;;;1.40;;
5167;SDS011;2603;48.918;8.980;2022-10-16T01:26:36;6.70;;;1.77;;
5167;SDS011;2603;48.918;8.980;2022-10-16T01:29:13;4.00;;;1.10;;
5167;SDS011;2603;48.918;8.980;2022-10-16T01:31:44;1.90;;;1.27;;
5167;SDS011;2603;48.918;8.980;2022-10-16T01:34:15;3.93;;;1.63;;
5167;SDS011;2603;48.918;8.980;2022-10-16T01:36:45;4.43;;;1.60;;
5167;SDS011;2603;48.918;8.980;2022-10-16T01:39:13;4.40;;;1.70;;
5167;SDS011;2603;48.918;8.980;2022-10-16T01:41:41;9.33;;;1.37;;
5167;SDS011;2603;48.918;8.980;2022-10-16T01:44:10;2.23;;;1.03;;
5167;SDS011;2603;48.918;8.980;2022-10-16T01:46:41;3.37;;;1.10;;
5167;SDS011;2603;48.918;8.980;2022-10-16T01:49:09;3.90;;;1.00;;
5167;SDS011;2603;48.918;8.980;2022-10-16T01:51:36;1.60;;;0.93;;
5167;SDS011;2603;48.918;8.980;2022-10-16T01:54:04;3.97;;;0.70;;
5167;SDS011;2603;48.918;8.980;2022-10-16T01:56:31;5.53;;;1.30;;
5167;SDS011;2603;48.918;8.980;2022-10-16T01:58:59;7.10;;;1.10;;
5167;SDS011;2603;48.918;8.980;2022-10-16T02:01:30;3.30;;;1.20;;
5167;SDS011;2603;48.918;8.980;2022-10-16T02:03:59;3.33;;;1.30;;
5167;SDS011;2603;48.918;8.980;2022-10-16T02:06:29;4.10;;;0.90;;
5167;SDS011;2603;48.918;8.980;2022-10-16T02:08:55;4.73;;;1.50;;
5167;SDS011;2603;48.918;8.980;2022-10-16T02:11:22;4.03;;;1.20;;
5167;SDS011;2603;48.918;8.980;2022-10-16T02:13:50;3.03;;;1.37;;
5167;SDS011;2603;48.918;8.980;2022-10-16T02:16:19;3.90;;;1.63;;
5167;SDS011;2603;48.918;8.980;2022-10-16T02:18:46;2.23;;;1.10;;
5167;SDS011;2603;48.918;8.980;2022-10-16T02:21:13;3.37;;;0.90;;
5167;SDS011;2603;48.918;8.980;2022-10-16T02:23:45;4.30;;;1.00;;
5167;SDS011;2603;48.918;8.980;2022-10-16T02:26:17;7.80;;;0.83;;
5167;SDS011;2603;48.918;8.980;2022-10-16T02:28:49;3.03;;;1.10;;
5167;SDS011;2603;48.918;8.980;2022-10-16T02:31:20;7.37;;;1.43;;
5167;SDS011;2603;48.918;8.980;2022-10-16T02:33:50;3.00;;;1.30;;
5167;SDS011;2603;48.918;8.980;2022-10-16T02:36:19;3.00;;;1.20;;
5167;SDS011;2603;48.918;8.980;2022-10-16T02:38:46;1.93;;;0.87;;
5167;SDS011;2603;48.918;8.980;2022-10-16T02:41:13;2.50;;;1.13;;
5167;SDS011;2603;48.918;8.980;2022-10-16T02:43:40;9.40;;;1.40;;
5167;SDS011;2603;48.918;8.980;2022-10-16T02:46:07;3.37;;;1.23;;
5167;SDS011;2603;48.918;8.980;2022-10-16T02:48:34;2.40;;;1.30;;
5167;SDS011;2603;48.918;8.980;2022-10-16T02:51:02;2.67;;;1.30;;
5167;SDS011;2603;48.918;8.980;2022-10-16T02:53:29;1.63;;;1.10;;
5167;SDS011;2603;48.918;8.980;2022-10-16T02:55:56;2.27;;;1.30;;
5167;SDS011;2603;48.918;8.980;2022-10-16T02:58:22;7.47;;;1.40;;
5167;SDS011;2603;48.918;8.980;2022-10-16T03:00:49;14.23;;;1.60;;
5167;SDS011;2603;48.918;8.980;2022-10-16T03:03:15;2.90;;;1.20;;
5167;SDS011;2603;48.918;8.980;2022-10-16T03:05:42;4.43;;;1.73;;
5167;SDS011;2603;48.918;8.980;2022-10-16T03:08:12;10.00;;;2.20;;
5167;SDS011;2603;48.918;8.980;2022-10-16T03:10:39;4.20;;;1.60;;
5167;SDS011;2603;48.918;8.980;2022-10-16T03:13:05;2.60;;;1.57;;
5167;SDS011;2603;48.918;8.980;2022-10-16T03:15:32;5.87;;;1.50;;
5167;SDS011;2603;48.918;8.980;2022-10-16T03:17:58;3.00;;;1.50;;
5167;SDS011;2603;48.918;8.980;2022-10-16T03:20:25;4.50;;;1.50;;
5167;SDS011;2603;48.918;8.980;2022-10-16T03:22:52;5.03;;;1.60;;
5167;SDS011;2603;48.918;8.980;2022-10-16T03:25:20;4.60;;;1.47;;
5167;SDS011;2603;48.918;8.980;2022-10-16T03:27:47;2.33;;;1.40;;
5167;SDS011;2603;48.918;8.980;2022-10-16T03:30:13;5.90;;;1.67;;
5167;SDS011;2603;48.918;8.980;2022-10-16T03:32:40;2.50;;;1.53;;
5167;SDS011;2603;48.918;8.980;2022-10-16T03:35:07;2.60;;;1.30;;
5167;SDS011;2603;48.918;8.980;2022-10-16T03:37:34;3.70;;;1.20;;
5167;SDS011;2603;48.918;8.980;2022-10-16T03:40:00;6.20;;;1.10;;
5167;SDS011;2603;48.918;8.980;2022-10-16T03:42:28;2.93;;;1.97;;
5167;SDS011;2603;48.918;8.980;2022-10-16T03:44:55;4.87;;;2.70;;
5167;SDS011;2603;48.918;8.980;2022-10-16T03:47:21;6.77;;;3.00;;
5167;SDS011;2603;48.918;8.980;2022-10-16T03:49:48;7.53;;;1.83;;
5167;SDS011;2603;48.918;8.980;2022-10-16T03:52:15;10.50;;;3.13;;
5167;SDS011;2603;48.918;8.980;2022-10-16T03:54:42;3.40;;;2.33;;
5167;SDS011;2603;48.918;8.980;2022-10-16T03:57:09;5.13;;;1.80;;
5167;SDS011;2603;48.918;8.980;2022-10-16T03:59:37;2.97;;;2.10;;
5167;SDS011;2603;48.918;8.980;2022-10-16T04:02:03;5.83;;;1.83;;
5167;SDS011;2603;48.918;8.980;2022-10-16T04:04:30;5.00;;;1.80;;
5167;SDS011;2603;48.918;8.980;2022-10-16T04:06:56;4.53;;;1.50;;
5167;SDS011;2603;48.918;8.980;2022-10-16T04:09:23;3.30;;;1.83;;
5167;SDS011;2603;48.918;8.980;2022-10-16T04:11:50;3.23;;;2.17;;
5167;SDS011;2603;48.918;8.980;2022-10-16T04:14:16;7.80;;;1.67;;
5167;SDS011;2603;48.918;8.980;2022-10-16T04:16:44;3.87;;;1.50;;
5167;SDS011;2603;48.918;8.980;2022-10-16T04:19:11;7.30;;;1.90;;
5167;SDS011;2603;48.918;8.980;2022-10-16T04:21:38;4.37;;;1.97;;
5167;SDS011;2603;48.918;8.980;2022-10-16T04:24:05;3.03;;;1.90;;
5167;SDS011;2603;48.918;8.980;2022-10-16T04:26:31;7.10;;;1.73;;
5167;SDS011;2603;48.918;8.980;2022-10-16T04:28:58;3.43;;;1.20;;
5167;SDS011;2603;48.918;8.980;2022-10-16T04:31:24;3.57;;;1.50;;
5167;SDS011;2603;48.918;8.980;2022-10-16T04:33:52;4.83;;;1.50;;
5167;SDS011;2603;48.918;8.980;2022-10-16T04:36:19;2.83;;;1.50;;
5167;SDS011;2603;48.918;8.980;2022-10-16T04:38:46;2.23;;;1.20;;
5167;SDS011;2603;48.918;8.980;2022-10-16T04:41:12;2.50;;;1.73;;
5167;SDS011;2603;48.918;8.980;2022-10-16T04:43:39;6.73;;;1.97;;
5167;SDS011;2603;48.918;8.980;2022-10-16T04:46:05;5.03;;;1.67;;
5167;SDS011;2603;48.918;8.980;2022-10-16T04:48:32;5.00;;;1.57;;
5167;SDS011;2603;48.918;8.980;2022-10-16T04:51:00;4.07;;;1.60;;
5167;SDS011;2603;48.918;8.980;2022-10-16T04:53:27;4.13;;;1.60;;
5167;SDS011;2603;48.918;8.980;2022-10-16T04:55:53;4.40;;;1.60;;
5167;SDS011;2603;48.918;8.980;2022-10-16T04:58:21;8.07;;;1.87;;
5167;SDS011;2603;48.918;8.980;2022-10-16T05:00:48;3.03;;;1.90;;
5167;SDS011;2603;48.918;8.980;2022-10-16T05:03:15;3.50;;;1.60;;
5167;SDS011;2603;48.918;8.980;2022-10-16T05:05:42;4.13;;;1.47;;
5167;SDS011;2603;48.918;8.980;2022-10-16T05:08:11;5.20;;;2.73;;
5167;SDS011;2603;48.918;8.980;2022-10-16T05:10:37;2.33;;;1.47;;
5167;SDS011;2603;48.918;8.980;2022-10-16T05:13:04;2.37;;;1.30;;
5167;SDS011;2603;48.918;8.980;2022-10-16T05:15:32;6.17;;;1.90;;
5167;SDS011;2603;48.918;8.980;2022-10-16T05:17:58;5.90;;;2.10;;
5167;SDS011;2603;48.918;8.980;2022-10-16T05:20:25;4.20;;;1.80;;
5167;SDS011;2603;48.918;8.980;2022-10-16T05:22:52;7.40;;;1.73;;
5167;SDS011;2603;48.918;8.980;2022-10-16T05:25:20;2.80;;;1.63;;
5167;SDS011;2603;48.918;8.980;2022-10-16T05:27:47;7.53;;;2.00;;
5167;SDS011;2603;48.918;8.980;2022-10-16T05:30:14;7.77;;;1.47;;
5167;SDS011;2603;48.918;8.980;2022-10-16T05:32:41;3.37;;;1.70;;
5167;SDS011;2603;48.918;8.980;2022-10-16T05:35:08;2.93;;;1.93;;
5167;SDS011;2603;48.918;8.980;2022-10-16T05:37:34;3.80;;;1.77;;
5167;SDS011;2603;48.918;8.980;2022-10-16T05:40:01;11.40;;;1.97;;
5167;SDS011;2603;48.918;8.980;2022-10-16T05:42:31;11.33;;;2.13;;
5167;SDS011;2603;48.918;8.980;2022-10-16T05:44:58;9.70;;;1.90;;
5167;SDS011;2603;48.918;8.980;2022-10-16T05:47:24;5.50;;;1.60;;
5167;SDS011;2603;48.918;8.980;2022-10-16T05:49:51;9.33;;;1.80;;
5167;SDS011;2603;48.918;8.980;2022-10-16T05:52:18;2.90;;;1.83;;
5167;SDS011;2603;48.918;8.980;2022-10-16T05:54:45;14.27;;;2.00;;
5167;SDS011;2603;48.918;8.980;2022-10-16T05:57:11;3.87;;;2.33;;
5167;SDS011;2603;48.918;8.980;2022-10-16T05:59:39;25.53;;;3.73;;
5167;SDS011;2603;48.918;8.980;2022-10-16T06:02:07;18.10;;;2.00;;
5167;SDS011;2603;48.918;8.980;2022-10-16T06:04:35;6.40;;;1.70;;
5167;SDS011;2603;48.918;8.980;2022-10-16T06:07:01;7.20;;;2.10;;
5167;SDS011;2603;48.918;8.980;2022-10-16T06:09:28;3.47;;;1.80;;
5167;SDS011;2603;48.918;8.980;2022-10-16T06:11:55;5.90;;;1.60;;
5167;SDS011;2603;48.918;8.980;2022-10-16T06:14:22;3.20;;;1.80;;
5167;SDS011;2603;48.918;8.980;2022-10-16T06:16:49;12.87;;;2.43;;
5167;SDS011;2603;48.918;8.980;2022-10-16T06:19:16;7.03;;;1.93;;
5167;SDS011;2603;48.918;8.980;2022-10-16T06:21:43;2.70;;;1.70;;
5167;SDS011;2603;48.918;8.980;2022-10-16T06:24:10;3.60;;;1.70;;
5167;SDS011;2603;48.918;8.980;2022-10-16T06:26:36;2.67;;;1.43;;
5167;SDS011;2603;48.918;8.980;2022-10-16T06:29:03;5.53;;;1.93;;
5167;SDS011;2603;48.918;8.980;2022-10-16T06:31:30;3.90;;;1.50;;
5167;SDS011;2603;48.918;8.980;2022-10-16T06:33:59;10.03;;;2.20;;
5167;SDS011;2603;48.918;8.980;2022-10-16T06:36:27;4.00;;;2.13;;
5167;SDS011;2603;48.918;8.980;2022-10-16T06:38:54;6.23;;;2.57;;
5167;SDS011;2603;48.918;8.980;2022-10-16T06:41:21;4.67;;;2.60;;
5167;SDS011;2603;48.918;8.980;2022-10-16T06:43:48;5.70;;;2.90;;
5167;SDS011;2603;48.918;8.980;2022-10-16T06:46:15;9.30;;;3.53;;
5167;SDS011;2603;48.918;8.980;2022-10-16T06:48:43;4.17;;;2.67;;
5167;SDS011;2603;48.918;8.980;2022-10-16T06:51:12;7.07;;;3.40;;
5167;SDS011;2603;48.918;8.980;2022-10-16T06:53:41;6.50;;;3.87;;
5167;SDS011;2603;48.918;8.980;2022-10-16T06:56:08;4.63;;;3.63;;
5167;SDS011;2603;48.918;8.980;2022-10-16T06:58:35;8.43;;;3.47;;
5167;SDS011;2603;48.918;8.980;2022-10-16T07:01:02;5.60;;;3.07;;
5167;SDS011;2603;48.918;8.980;2022-10-16T07:03:29;4.50;;;2.67;;
5167;SDS011;2603;48.918;8.980;2022-10-16T07:05:55;5.27;;;2.47;;
5167;SDS011;2603;48.918;8.980;2022-10-16T07:08:24;3.97;;;2.30;;
5167;SDS011;2603;48.918;8.980;2022-10-16T07:10:57;13.20;;;4.03;;
5167;SDS011;2603;48.918;8.980;2022-10-16T07:13:25;5.63;;;2.90;;
5167;SDS011;2603;48.918;8.980;2022-10-16T07:15:51;10.80;;;3.73;;
5167;SDS011;2603;48.918;8.980;2022-10-16T07:18:18;10.00;;;5.90;;
5167;SDS011;2603;48.918;8.980;2022-10-16T07:20:45;7.57;;;5.00;;
5167;SDS011;2603;48.918;8.980;2022-10-16T07:23:12;5.70;;;2.97;;
5167;SDS011;2603;48.918;8.980;2022-10-16T07:25:40;5.43;;;2.77;;
5167;SDS011;2603;48.918;8.980;2022-10-16T07:28:07;6.27;;;2.60;;
5167;SDS011;2603;48.918;8.980;2022-10-16T07:30:34;7.80;;;2.70;;
5167;SDS011;2603;48.918;8.980;2022-10-16T07:33:01;3.40;;;2.40;;
5167;SDS011;2603;48.918;8.980;2022-10-16T07:35:28;4.60;;;2.00;;
5167;SDS011;2603;48.918;8.980;2022-10-16T07:37:55;21.20;;;2.80;;
5167;SDS011;2603;48.918;8.980;2022-10-16T07:40:21;4.30;;;1.50;;
5167;SDS011;2603;48.918;8.980;2022-10-16T07:42:49;3.40;;;2.10;;
5167;SDS011;2603;48.918;8.980;2022-10-16T07:45:16;3.10;;;2.00;;
5167;SDS011;2603;48.918;8.980;2022-10-16T07:47:43;5.07;;;3.30;;
5167;SDS011;2603;48.918;8.980;2022-10-16T07:50:09;6.20;;;3.73;;
5167;SDS011;2603;48.918;8.980;2022-10-16T07:52:36;6.03;;;3.63;;
5167;SDS011;2603;48.918;8.980;2022-10-16T07:55:03;3.40;;;2.00;;
5167;SDS011;2603;48.918;8.980;2022-10-16T07:57:30;4.37;;;1.87;;
5167;SDS011;2603;48.918;8.980;2022-10-16T07:59:58;8.60;;;2.10;;
5167;SDS011;2603;48.918;8.980;2022-10-16T08:02:24;5.80;;;2.00;;
5167;SDS011;2603;48.918;8.980;2022-10-16T08:04:51;3.83;;;1.67;;
5167;SDS011;2603;48.918;8.980;2022-10-16T08:07:18;7.10;;;1.97;;
5167;SDS011;2603;48.918;8.980;2022-10-16T08:09:44;4.00;;;1.90;;
5167;SDS011;2603;48.918;8.980;2022-10-16T08:12:15;5.13;;;2.03;;
5167;SDS011;2603;48.918;8.980;2022-10-16T08:14:42;5.60;;;2.33;;
5167;SDS011;2603;48.918;8.980;2022-10-16T08:17:10;4.13;;;1.60;;
5167;SDS011;2603;48.918;8.980;2022-10-16T08:19:40;2.40;;;1.50;;
5167;SDS011;2603;48.918;8.980;2022-10-16T08:22:06;3.67;;;1.87;;
5167;SDS011;2603;48.918;8.980;2022-10-16T08:24:33;4.33;;;1.67;;
5167;SDS011;2603;48.918;8.980;2022-10-16T08:27:02;4.73;;;1.47;;
5167;SDS011;2603;48.918;8.980;2022-10-16T08:29:29;3.23;;;2.13;;
5167;SDS011;2603;48.918;8.980;2022-10-16T08:31:55;4.40;;;1.73;;
5167;SDS011;2603;48.918;8.980;2022-10-16T08:34:24;3.67;;;1.10;;
5167;SDS011;2603;48.918;8.980;2022-10-16T08:36:52;3.47;;;1.70;;
5167;SDS011;2603;48.918;8.980;2022-10-16T08:39:19;3.10;;;1.73;;
5167;SDS011;2603;48.918;8.980;2022-10-16T08:42:04;6.70;;;2.50;;
5167;SDS011;2603;48.918;8.980;2022-10-16T08:47:48;4.50;;;2.00;;
5167;SDS011;2603;48.918;8.980;2022-10-16T08:50:18;8.23;;;2.10;;
5167;SDS011;2603;48.918;8.980;2022-10-16T08:52:49;4.10;;;1.50;;
5167;SDS011;2603;48.918;8.980;2022-10-16T08:55:19;9.33;;;1.50;;
5167;SDS011;2603;48.918;8.980;2022-10-16T08:57:54;4.57;;;1.53;;
5167;SDS011;2603;48.918;8.980;2022-10-16T09:00:21;2.60;;;1.30;;
5167;SDS011;2603;48.918;8.980;2022-10-16T09:02:49;2.80;;;1.53;;
5167;SDS011;2603;48.918;8.980;2022-10-16T09:05:26;3.60;;;1.43;;
5167;SDS011;2603;48.918;8.980;2022-10-16T09:08:09;6.20;;;1.13;;
5167;SDS011;2603;48.918;8.980;2022-10-16T09:10:43;7.93;;;1.60;;
5167;SDS011;2603;48.918;8.980;2022-10-16T09:13:17;2.60;;;1.03;;
5167;SDS011;2603;48.918;8.980;2022-10-16T09:15:48;2.47;;;1.27;;
5167;SDS011;2603;48.918;8.980;2022-10-16T09:18:18;4.20;;;1.07;;
5167;SDS011;2603;48.918;8.980;2022-10-16T09:20:53;3.17;;;1.33;;
5167;SDS011;2603;48.918;8.980;2022-10-16T09:23:27;3.73;;;1.20;;
5167;SDS011;2603;48.918;8.980;2022-10-16T09:25:55;2.70;;;1.20;;
5167;SDS011;2603;48.918;8.980;2022-10-16T09:28:22;2.63;;;0.83;;
5167;SDS011;2603;48.918;8.980;2022-10-16T09:30:49;4.70;;;1.10;;
5167;SDS011;2603;48.918;8.980;2022-10-16T09:33:17;4.20;;;1.20;;
5167;SDS011;2603;48.918;8.980;2022-10-16T09:35:45;5.37;;;1.30;;
5167;SDS011;2603;48.918;8.980;2022-10-16T09:38:24;2.07;;;1.00;;
5167;SDS011;2603;48.918;8.980;2022-10-16T09:40:53;2.33;;;0.93;;
5167;SDS011;2603;48.918;8.980;2022-10-16T09:43:21;3.97;;;1.00;;
5167;SDS011;2603;48.918;8.980;2022-10-16T09:45:53;2.83;;;1.20;;
5167;SDS011;2603;48.918;8.980;2022-10-16T09:48:21;2.13;;;1.00;;
5167;SDS011;2603;48.918;8.980;2022-10-16T09:50:55;2.83;;;1.30;;
5167;SDS011;2603;48.918;8.980;2022-10-16T09:53:23;2.80;;;0.93;;
5167;SDS011;2603;48.918;8.980;2022-10-16T09:55:50;10.37;;;1.40;;
5167;SDS011;2603;48.918;8.980;2022-10-16T09:58:17;2.70;;;1.30;;
5167;SDS011;2603;48.918;8.980;2022-10-16T10:00:48;7.20;;;1.40;;
5167;SDS011;2603;48.918;8.980;2022-10-16T10:03:32;3.60;;;1.20;;
5167;SDS011;2603;48.918;8.980;2022-10-16T10:06:03;8.57;;;2.30;;
5167;SDS011;2603;48.918;8.980;2022-10-16T10:08:34;4.27;;;1.63;;
5167;SDS011;2603;48.918;8.980;2022-10-16T10:14:42;3.53;;;1.07;;
5167;SDS011;2603;48.918;8.980;2022-10-16T10:17:12;3.30;;;0.90;;
5167;SDS011;2603;48.918;8.980;2022-10-16T10:19:41;1.70;;;1.00;;
5167;SDS011;2603;48.918;8.980;2022-10-16T10:22:22;4.43;;;1.23;;
5167;SDS011;2603;48.918;8.980;2022-10-16T10:24:57;1.93;;;0.73;;
5167;SDS011;2603;48.918;8.980;2022-10-16T10:27:30;2.03;;;1.13;;
5167;SDS011;2603;48.918;8.980;2022-10-16T10:30:01;6.17;;;1.90;;
5167;SDS011;2603;48.918;8.980;2022-10-16T10:32:32;2.40;;;1.20;;
5167;SDS011;2603;48.918;8.980;2022-10-16T10:35:07;5.47;;;1.37;;
5167;SDS011;2603;48.918;8.980;2022-10-16T10:37:43;2.83;;;0.93;;
5167;SDS011;2603;48.918;8.980;2022-10-16T10:40:22;2.90;;;1.20;;
5167;SDS011;2603;48.918;8.980;2022-10-16T10:42:56;1.70;;;0.97;;
5167;SDS011;2603;48.918;8.980;2022-10-16T10:45:26;1.83;;;0.90;;
5167;SDS011;2603;48.918;8.980;2022-10-16T10:47:59;1.70;;;0.97;;
5167;SDS011;2603;48.918;8.980;2022-10-16T10:50:33;11.40;;;1.60;;
5167;SDS011;2603;48.918;8.980;2022-10-16T10:53:05;6.80;;;1.30;;
5167;SDS011;2603;48.918;8.980;2022-10-16T10:55:39;1.40;;;0.80;;
5167;SDS011;2603;48.918;8.980;2022-10-16T10:58:14;2.57;;;1.20;;
5167;SDS011;2603;48.918;8.980;2022-10-16T11:01:01;2.13;;;0.90;;
5167;SDS011;2603;48.918;8.980;2022-10-16T11:03:33;2.40;;;1.30;;
5167;SDS011;2603;48.918;8.980;2022-10-16T11:06:08;1.87;;;1.03;;
5167;SDS011;2603;48.918;8.980;2022-10-16T11:08:39;3.80;;;1.63;;
5167;SDS011;2603;48.918;8.980;2022-10-16T11:11:10;1.80;;;0.87;;
5167;SDS011;2603;48.918;8.980;2022-10-16T11:13:42;7.93;;;0.90;;
5167;SDS011;2603;48.918;8.980;2022-10-16T11:16:14;11.53;;;1.30;;
5167;SDS011;2603;48.918;8.980;2022-10-16T11:18:44;2.80;;;0.97;;
5167;SDS011;2603;48.918;8.980;2022-10-16T11:21:14;2.03;;;1.37;;
5167;SDS011;2603;48.918;8.980;2022-10-16T11:23:43;4.73;;;1.30;;
5167;SDS011;2603;48.918;8.980;2022-10-16T11:26:15;7.20;;;1.13;;
5167;SDS011;2603;48.918;8.980;2022-10-16T11:28:45;2.27;;;1.03;;
5167;SDS011;2603;48.918;8.980;2022-10-16T11:31:16;2.07;;;1.10;;
5167;SDS011;2603;48.918;8.980;2022-10-16T11:33:47;1.50;;;0.90;;
5167;SDS011;2603;48.918;8.980;2022-10-16T11:36:19;1.67;;;0.70;;
5167;SDS011;2603;48.918;8.980;2022-10-16T11:38:50;3.10;;;1.80;;
5167;SDS011;2603;48.918;8.980;2022-10-16T11:41:24;3.10;;;0.83;;
5167;SDS011;2603;48.918;8.980;2022-10-16T11:43:57;3.13;;;1.20;;
5167;SDS011;2603;48.918;8.980;2022-10-16T11:46:30;3.60;;;1.20;;
5167;SDS011;2603;48.918;8.980;2022-10-16T11:49:00;3.50;;;0.90;;
5167;SDS011;2603;48.918;8.980;2022-10-16T11:51:31;3.13;;;0.90;;
5167;SDS011;2603;48.918;8.980;2022-10-16T11:54:02;1.90;;;1.00;;
5167;SDS011;2603;48.918;8.980;2022-10-16T11:56:37;1.57;;;0.90;;
5167;SDS011;2603;48.918;8.980;2022-10-16T11:59:05;3.43;;;2.10;;
5167;SDS011;2603;48.918;8.980;2022-10-16T12:01:37;2.47;;;1.00;;
5167;SDS011;2603;48.918;8.980;2022-10-16T12:04:13;2.53;;;1.10;;
5167;SDS011;2603;48.918;8.980;2022-10-16T12:06:43;1.90;;;0.80;;
5167;SDS011;2603;48.918;8.980;2022-10-16T12:09:13;2.60;;;1.20;;
5167;SDS011;2603;48.918;8.980;2022-10-16T12:11:43;8.43;;;1.40;;
5167;SDS011;2603;48.918;8.980;2022-10-16T12:14:18;2.20;;;1.30;;
5167;SDS011;2603;48.918;8.980;2022-10-16T12:17:00;7.53;;;2.47;;
5167;SDS011;2603;48.918;8.980;2022-10-16T12:19:30;5.27;;;1.90;;
5167;SDS011;2603;48.918;8.980;2022-10-16T12:21:58;2.73;;;1.30;;
5167;SDS011;2603;48.918;8.980;2022-10-16T12:24:31;9.63;;;1.93;;
5167;SDS011;2603;48.918;8.980;2022-10-16T12:27:01;4.53;;;1.23;;
5167;SDS011;2603;48.918;8.980;2022-10-16T12:29:35;2.33;;;1.00;;
5167;SDS011;2603;48.918;8.980;2022-10-16T12:32:03;5.30;;;1.30;;
5167;SDS011;2603;48.918;8.980;2022-10-16T12:34:33;1.73;;;0.90;;
5167;SDS011;2603;48.918;8.980;2022-10-16T12:37:08;9.43;;;2.13;;
5167;SDS011;2603;48.918;8.980;2022-10-16T12:39:36;3.47;;;1.40;;
5167;SDS011;2603;48.918;8.980;2022-10-16T12:42:06;3.00;;;1.03;;
5167;SDS011;2603;48.918;8.980;2022-10-16T12:44:46;5.27;;;2.37;;
5167;SDS011;2603;48.918;8.980;2022-10-16T12:47:19;4.40;;;1.57;;
5167;SDS011;2603;48.918;8.980;2022-10-16T12:49:48;1.33;;;0.90;;
5167;SDS011;2603;48.918;8.980;2022-10-16T12:55:02;2.30;;;1.07;;
5167;SDS011;2603;48.918;8.980;2022-10-16T12:57:41;2.83;;;1.30;;
5167;SDS011;2603;48.918;8.980;2022-10-16T13:00:17;3.53;;;1.00;;
5167;SDS011;2603;48.918;8.980;2022-10-16T13:02:57;7.57;;;1.20;;
5167;SDS011;2603;48.918;8.980;2022-10-16T13:05:46;2.50;;;1.30;;
5167;SDS011;2603;48.918;8.980;2022-10-16T13:08:22;23.60;;;2.90;;
5167;SDS011;2603;48.918;8.980;2022-10-16T13:10:59;10.07;;;1.60;;
5167;SDS011;2603;48.918;8.980;2022-10-16T13:13:38;16.20;;;2.10;;
5167;SDS011;2603;48.918;8.980;2022-10-16T13:16:26;9.77;;;1.73;;
5167;SDS011;2603;48.918;8.980;2022-10-16T13:19:01;5.43;;;1.60;;
5167;SDS011;2603;48.918;8.980;2022-10-16T13:21:37;6.40;;;1.40;;
5167;SDS011;2603;48.918;8.980;2022-10-16T13:24:11;5.20;;;1.50;;
5167;SDS011;2603;48.918;8.980;2022-10-16T13:26:51;2.03;;;1.43;;
5167;SDS011;2603;48.918;8.980;2022-10-16T13:29:22;2.27;;;1.10;;
5167;SDS011;2603;48.918;8.980;2022-10-16T13:31:49;4.13;;;1.40;;
5167;SDS011;2603;48.918;8.980;2022-10-16T13:34:17;2.10;;;1.00;;
5167;SDS011;2603;48.918;8.980;2022-10-16T13:36:46;3.50;;;1.50;;
5167;SDS011;2603;48.918;8.980;2022-10-16T13:39:19;1.80;;;0.90;;
5167;SDS011;2603;48.918;8.980;2022-10-16T13:41:57;2.77;;;1.13;;
5167;SDS011;2603;48.918;8.980;2022-10-16T13:44:28;2.40;;;1.30;;
5167;SDS011;2603;48.918;8.980;2022-10-16T13:46:58;7.27;;;1.40;;
5167;SDS011;2603;48.918;8.980;2022-10-16T13:49:25;7.73;;;1.03;;
5167;SDS011;2603;48.918;8.980;2022-10-16T13:51:55;2.47;;;1.00;;
5167;SDS011;2603;48.918;8.980;2022-10-16T13:54:22;4.90;;;1.60;;
5167;SDS011;2603;48.918;8.980;2022-10-16T13:56:49;2.50;;;1.10;;
5167;SDS011;2603;48.918;8.980;2022-10-16T13:59:23;7.47;;;1.13;;
5167;SDS011;2603;48.918;8.980;2022-10-16T14:01:53;4.43;;;1.67;;
5167;SDS011;2603;48.918;8.980;2022-10-16T14:04:20;2.47;;;1.27;;
5167;SDS011;2603;48.918;8.980;2022-10-16T14:06:49;2.70;;;1.10;;
5167;SDS011;2603;48.918;8.980;2022-10-16T14:09:19;5.97;;;1.73;;
5167;SDS011;2603;48.918;8.980;2022-10-16T14:11:48;1.90;;;1.00;;
5167;SDS011;2603;48.918;8.980;2022-10-16T14:14:16;2.50;;;1.27;;
5167;SDS011;2603;48.918;8.980;2022-10-16T14:16:43;7.10;;;2.03;;
5167;SDS011;2603;48.918;8.980;2022-10-16T14:19:15;6.00;;;2.40;;
5167;SDS011;2603;48.918;8.980;2022-10-16T14:21:45;6.10;;;2.90;;
5167;SDS011;2603;48.918;8.980;2022-10-16T14:24:12;7.30;;;3.00;;
5167;SDS011;2603;48.918;8.980;2022-10-16T14:26:40;4.90;;;1.60;;
5167;SDS011;2603;48.918;8.980;2022-10-16T14:29:11;3.10;;;1.40;;
5167;SDS011;2603;48.918;8.980;2022-10-16T14:31:39;2.20;;;1.30;;
5167;SDS011;2603;48.918;8.980;2022-10-16T14:36:52;3.40;;;2.30;;
5167;SDS011;2603;48.918;8.980;2022-10-16T14:39:20;2.57;;;1.20;;
5167;SDS011;2603;48.918;8.980;2022-10-16T14:41:48;6.40;;;2.17;;
5167;SDS011;2603;48.918;8.980;2022-10-16T14:44:18;4.47;;;1.20;;
5167;SDS011;2603;48.918;8.980;2022-10-16T14:46:45;6.40;;;1.50;;
5167;SDS011;2603;48.918;8.980;2022-10-16T14:49:14;2.20;;;1.10;;
5167;SDS011;2603;48.918;8.980;2022-10-16T14:51:43;5.20;;;1.60;;
5167;SDS011;2603;48.918;8.980;2022-10-16T14:54:11;2.50;;;1.80;;
5167;SDS011;2603;48.918;8.980;2022-10-16T14:56:42;3.40;;;2.00;;
5167;SDS011;2603;48.918;8.980;2022-10-16T14:59:13;2.20;;;1.20;;
5167;SDS011;2603;48.918;8.980;2022-10-16T15:01:42;2.70;;;1.20;;
5167;SDS011;2603;48.918;8.980;2022-10-16T15:04:09;5.67;;;1.83;;
5167;SDS011;2603;48.918;8.980;2022-10-16T15:06:37;3.80;;;2.07;;
5167;SDS011;2603;48.918;8.980;2022-10-16T15:09:05;5.00;;;1.33;;
5167;SDS011;2603;48.918;8.980;2022-10-16T15:11:32;3.77;;;1.70;;
5167;SDS011;2603;48.918;8.980;2022-10-16T15:13:59;6.53;;;1.70;;
5167;SDS011;2603;48.918;8.980;2022-10-16T15:16:26;7.53;;;1.27;;
5167;SDS011;2603;48.918;8.980;2022-10-16T15:18:52;2.30;;;1.43;;
5167;SDS011;2603;48.918;8.980;2022-10-16T15:21:20;5.33;;;1.43;;
5167;SDS011;2603;48.918;8.980;2022-10-16T15:23:49;7.57;;;1.90;;
5167;SDS011;2603;48.918;8.980;2022-10-16T15:26:17;4.67;;;1.80;;
5167;SDS011;2603;48.918;8.980;2022-10-16T15:28:44;3.67;;;1.97;;
5167;SDS011;2603;48.918;8.980;2022-10-16T15:31:11;4.53;;;1.83;;
5167;SDS011;2603;48.918;8.980;2022-10-16T15:33:37;2.30;;;1.27;;
5167;SDS011;2603;48.918;8.980;2022-10-16T15:36:04;6.70;;;1.60;;
5167;SDS011;2603;48.918;8.980;2022-10-16T15:38:31;3.50;;;1.30;;
5167;SDS011;2603;48.918;8.980;2022-10-16T15:40:58;3.17;;;1.77;;